Latest Weather Observations for Lake Macquarie - Cooranbong

IDN60801

Issued at 12:02 pm EST Thursday 3 September 2015 (issued every 30 minutes, with the page automatically refreshed every 10 minutes)

About weather observations | Map of weather stations | Latest weather observations for NSW | Other Formats
Station Details ID: 061412 Name: LAKE MACQUARIE AWS Lat: -33.09 Lon: 151.46 Height: 6.0 m
Data from the previous 72 hours. | See also: Recent months at Lake Macquarie - Cooranbong
Date/Time
EST
Temp
°C
App
Temp
°C
Dew
Point
Rel
Hum
%
Delta-T
°C
Wind Press
QNH
hPa
Press
MSL
hPa
Rain
since 9 am
mm
Dir
 
Spd
km/h
Gust
km/h
Spd
kts
Gust
kts
03/12:00pm 18.0 13.2 4.6 41 6.4 W 19 33 10 18 1007.2 1007.2 0.0
03/11:30am 17.9 12.9 4.8 42 6.3 W 20 35 11 19 1007.3 1007.3 0.0
03/11:00am 18.7 15.2 5.5 42 6.5 WNW 13 22 7 12 1007.0 1007.0 0.0
03/10:30am 18.2 14.6 5.1 42 6.3 W 13 24 7 13 1006.8 1006.8 0.0
03/10:00am 18.6 16.2 8.6 52 5.2 NW 11 19 6 10 1006.6 1006.6 0.0
03/09:30am 17.7 15.2 8.3 54 4.8 NW 11 20 6 11 1006.3 1006.3 0.0
03/09:00am 17.3 15.6 10.0 62 3.9 NW 9 15 5 8 1006.2 1006.2 2.8
03/08:30am 16.4 14.7 9.8 65 3.5 NW 9 15 5 8 1006.5 1006.5 2.8
03/08:00am 15.4 14.6 11.0 75 2.4 NW 6 7 3 4 1006.2 1006.2 2.8
03/07:30am 14.1 13.7 12.3 89 1.0 NW 6 11 3 6 1005.9 1005.9 2.8
03/07:00am 10.8 10.5 10.2 96 0.3 NNW 2 7 1 4 1005.7 1005.7 2.8
03/06:30am 9.1 8.3 8.3 95 0.4 NW 2 2 1 1 1005.6 1005.6 2.6
03/06:00am 8.9 8.4 8.0 94 0.4 CALM 0 0 0 0 1005.3 1005.3 2.6
03/05:30am 9.8 9.6 9.0 95 0.4 CALM 0 0 0 0 1005.2 1005.2 2.6
03/05:00am 10.4 10.3 9.6 95 0.4 CALM 0 0 0 0 1005.1 1005.1 2.6
03/04:30am 10.7 10.7 9.9 95 0.4 CALM 0 0 0 0 1005.4 1005.4 2.6
03/04:00am 10.6 10.6 9.7 94 0.5 CALM 0 4 0 2 1005.7 1005.7 2.6
03/03:30am 10.9 11.0 10.0 94 0.5 CALM 0 0 0 0 1005.7 1005.7 2.6
03/03:00am 11.1 10.1 10.2 94 0.5 NW 6 7 3 4 1007.1 1007.1 2.6
03/02:30am 11.0 10.3 10.1 94 0.5 NNE 4 6 2 3 1007.0 1007.0 2.4
03/02:00am 11.1 10.4 10.2 94 0.5 S 4 7 2 4 1008.1 1008.1 2.4
03/01:30am 11.0 10.3 9.9 93 0.6 N 4 7 2 4 1009.1 1009.1 1.2
03/01:00am 11.0 11.0 9.8 92 0.6 CALM 0 0 0 0 1008.5 1008.5 1.0
03/12:30am 11.0 10.5 9.4 90 0.8 SSW 2 4 1 2 1009.2 1009.2 0.8
03/12:00am 11.5 10.8 8.7 83 1.4 WNW 2 9 1 5 1009.9 1009.9 0.0
 
Date/Time
EST
Temp
°C
App
Temp
°C
Dew
Point
Rel
Hum
%
Delta-T
°C
Wind Press
QNH
hPa
Press
MSL
hPa
Rain
since 9 am
mm
Dir
 
Spd
km/h
Gust
km/h
Spd
kts
Gust
kts
02/11:54pm 11.5 10.0 8.4 81 1.5 NW 6 9 3 5 1010.0 1010.0 0.0
02/11:30pm 10.8 10.5 8.6 86 1.1 CALM 0 4 0 2 1007.9 1007.9 0.0
02/11:00pm 10.9 10.2 8.7 86 1.1 W 2 4 1 2 1008.1 1008.1 0.0
02/10:30pm 10.6 9.8 8.2 85 1.2 NW 2 4 1 2 1009.0 1009.0 0.0
02/10:00pm 10.9 10.4 8.0 82 1.4 CALM 0 0 0 0 1009.8 1009.8 0.0
02/09:30pm 11.2 10.3 7.9 80 1.6 NNW 2 4 1 2 1010.6 1010.6 0.0
02/09:00pm 11.8 11.4 8.1 78 1.8 CALM 0 2 0 1 1010.8 1010.8 0.0
02/08:30pm 12.3 11.9 8.4 77 1.9 CALM 0 6 0 3 1011.5 1011.5 0.0
02/08:00pm 12.0 11.6 8.3 78 1.8 CALM 0 0 0 0 1011.6 1011.6 0.0
02/07:30pm 12.7 11.9 8.2 74 2.2 NW 2 4 1 2 1011.7 1011.7 0.0
02/07:00pm 12.6 11.4 7.9 73 2.3 N 4 6 2 3 1012.0 1012.0 0.0
02/06:30pm 12.8 11.9 7.7 71 2.5 NNW 2 7 1 4 1012.2 1012.2 0.0
02/06:00pm 13.9 12.8 6.7 62 3.5 NNW 2 4 1 2 1012.1 1012.1 0.0
02/05:30pm 15.5 14.6 6.0 53 4.6 CALM 0 0 0 0 1012.2 1012.2 0.0
02/05:00pm 18.1 16.5 4.7 41 6.4 NNE 2 6 1 3 1012.2 1012.2 0.0
02/04:30pm 18.2 16.1 4.0 39 6.7 NE 4 7 2 4 1012.4 1012.4 0.0
02/04:00pm 19.4 16.1 2.7 33 7.7 NNE 9 17 5 9 1012.4 1012.4 0.0
02/03:30pm 19.7 16.5 3.0 33 7.8 NE 9 17 5 9 1012.2 1012.2 0.0
02/03:00pm 19.6 16.4 3.3 34 7.7 NE 9 19 5 10 1012.6 1012.6 0.0
02/02:30pm 19.1 15.0 2.5 33 7.6 NNE 13 17 7 9 1013.1 1013.1 0.0
02/02:00pm 19.2 15.5 2.6 33 7.7 N 11 20 6 11 1013.6 1013.6 0.0
02/01:30pm 18.8 14.7 -0.1 28 8.2 NNW 11 17 6 9 1014.1 1014.1 0.0
02/01:00pm 19.8 15.8 2.6 32 8.0 N 13 24 7 13 1014.4 1014.4 0.0
02/12:30pm 19.4 15.0 0.4 28 8.4 NNW 13 20 7 11 1015.0 1015.0 0.0
02/12:00pm 18.6 14.5 2.4 34 7.4 NNW 13 20 7 11 1015.6 1015.6 0.0
02/11:30am 19.1 15.9 2.9 34 7.5 N 9 20 5 11 1016.2 1016.2 0.0
02/11:00am 17.7 15.2 3.9 40 6.5 N 6 9 3 5 1017.0 1017.0 0.0
02/10:30am 16.3 14.0 4.7 46 5.5 NNE 6 9 3 5 1017.3 1017.3 0.0
02/10:00am 16.5 14.1 4.5 45 5.6 NNE 6 13 3 7 1017.7 1017.7 0.0
02/09:30am 16.0 14.4 6.4 53 4.7 NE 4 7 2 4 1018.1 1018.1 0.0
02/09:00am 14.3 13.7 7.6 64 3.3 CALM 0 0 0 0 1018.4 1018.4 0.0
02/08:30am 11.0 10.3 6.9 76 1.9 CALM 0 0 0 0 1018.5 1018.5 0.0
02/08:00am 8.4 7.8 7.2 92 0.6 CALM 0 0 0 0 1018.3 1018.3 0.0
02/07:30am 5.3 4.1 4.7 96 0.3 CALM 0 0 0 0 1018.2 1018.2 0.0
02/07:00am 2.8 1.1 2.1 95 0.3 CALM 0 0 0 0 1018.0 1018.0 0.0
02/06:30am 2.3 0.6 1.6 95 0.3 CALM 0 0 0 0 1017.9 1017.9 0.0
02/06:00am 2.5 0.8 1.8 95 0.3 CALM 0 0 0 0 1017.6 1017.6 0.0
02/05:30am 2.6 0.9 1.9 95 0.3 CALM 0 0 0 0 1017.5 1017.5 0.0
02/05:00am 2.4 0.7 1.7 95 0.3 CALM 0 0 0 0 1017.1 1017.1 0.0
02/04:30am 2.4 0.7 1.7 95 0.3 CALM 0 0 0 0 1016.9 1016.9 0.0
02/04:00am 2.5 0.8 1.8 95 0.3 CALM 0 0 0 0 1016.8 1016.8 0.0
02/03:30am 2.0 0.2 1.3 95 0.3 CALM 0 0 0 0 1016.6 1016.6 0.0
02/03:00am 2.6 0.9 1.9 95 0.3 CALM 0 0 0 0 1017.1 1017.1 0.0
02/02:30am 3.0 1.4 2.3 95 0.3 CALM 0 2 0 1 1017.1 1017.1 0.0
02/02:00am 3.2 1.2 2.3 94 0.4 N 2 4 1 2 1017.1 1017.1 0.0
02/01:30am 3.4 1.8 2.5 94 0.4 CALM 0 0 0 0 1016.7 1016.7 0.0
02/01:00am 3.8 2.3 2.9 94 0.4 CALM 0 0 0 0 1016.9 1016.9 0.0
02/12:30am 3.9 2.4 2.9 93 0.4 CALM 0 0 0 0 1016.6 1016.6 0.0
02/12:00am 4.5 3.1 3.6 94 0.4 CALM 0 0 0 0 1016.5 1016.5 0.0
 
Date/Time
EST
Temp
°C
App
Temp
°C
Dew
Point
Rel
Hum
%
Delta-T
°C
Wind Press
QNH
hPa
Press
MSL
hPa
Rain
since 9 am
mm
Dir
 
Spd
km/h
Gust
km/h
Spd
kts
Gust
kts
01/11:30pm 5.0 3.7 4.0 93 0.4 CALM 0 0 0 0 1016.6 1016.6 0.0
01/11:00pm 5.4 4.2 4.4 93 0.4 CALM 0 0 0 0 1016.4 1016.4 0.0
01/10:30pm 5.5 4.3 4.5 93 0.4 CALM 0 0 0 0 1016.3 1016.3 0.0
01/10:00pm 6.1 5.0 4.9 92 0.5 CALM 0 0 0 0 1016.2 1016.2 0.0
01/09:30pm 6.3 5.2 4.9 91 0.6 CALM 0 0 0 0 1015.9 1015.9 0.0
01/09:00pm 6.9 5.9 5.4 90 0.7 CALM 0 0 0 0 1015.6 1015.6 0.0
01/08:30pm 7.6 6.7 5.9 89 0.8 CALM 0 0 0 0 1015.4 1015.4 0.0
01/08:00pm 7.9 6.9 5.7 86 1.0 CALM 0 0 0 0 1015.2 1015.2 0.0
01/07:30pm 8.8 8.0 6.3 84 1.1 CALM 0 0 0 0 1015.0 1015.0 0.0
01/07:00pm 9.5 8.6 6.2 80 1.5 CALM 0 0 0 0 1014.8 1014.8 0.0
01/06:30pm 10.5 9.6 6.1 74 2.0 CALM 0 0 0 0 1014.6 1014.6 0.0
01/06:00pm 12.2 11.3 6.0 66 2.9 CALM 0 0 0 0 1014.3 1014.3 0.0
01/05:30pm 14.3 13.3 5.7 56 4.1 CALM 0 2 0 1 1014.1 1014.1 0.0
01/05:00pm 15.9 13.4 4.6 47 5.3 ESE 7 9 4 5 1013.8 1013.8 0.0
01/04:30pm 17.0 14.2 5.0 45 5.7 E 9 15 5 8 1013.4 1013.4 0.0
01/04:00pm 17.7 14.7 4.3 41 6.3 ESE 9 17 5 9 1013.2 1013.2 0.0
01/03:30pm 20.6 18.2 -0.1 25 9.2 NNW 2 6 1 3 1013.3 1013.3 0.0
01/03:00pm 20.3 17.1 -0.3 25 9.1 WNW 6 11 3 6 1013.3 1013.3 0.0
01/02:30pm 20.2 16.7 -1.0 24 9.2 NW 7 13 4 7 1013.4 1013.4 0.0
01/02:00pm 19.8 16.6 -0.2 26 8.8 WNW 6 11 3 6 1013.5 1013.5 0.0
01/01:30pm 19.4 16.2 0.9 29 8.3 WSW 7 20 4 11 1013.5 1013.5 0.0
01/01:00pm 19.0 15.7 -0.9 26 8.5 W 6 13 3 7 1013.8 1013.8 0.0
01/12:30pm 18.2 14.6 -2.1 25 8.4 WSW 7 19 4 10 1014.3 1014.3 0.0
01/12:00pm 17.6 14.1 -1.1 28 7.9 WSW 7 15 4 8 1014.8 1014.8 0.0
01/11:30am 17.4 14.3 1.4 34 7.1 WNW 7 13 4 7 1015.2 1015.2 0.0
01/11:00am 17.2 14.7 3.5 40 6.3 NNW 6 15 3 8 1015.7 1015.7 0.0
01/10:30am 16.1 12.6 3.5 43 5.8 NNW 11 19 6 10 1016.2 1016.2 0.0
01/10:00am 15.4 12.4 4.2 47 5.2 NW 9 15 5 8 1016.2 1016.2 0.0
01/09:30am 14.9 12.0 4.6 50 4.8 WNW 9 15 5 8 1016.2 1016.2 0.0
01/09:00am 13.8 12.2 4.7 54 4.2 WNW 2 6 1 3 1016.3 1016.3 0.2
01/08:30am 12.6 10.7 4.8 59 3.6 WNW 4 7 2 4 1016.3 1016.3 0.2
01/08:00am 10.6 9.5 8.4 86 1.1 NNW 4 6 2 3 1016.1 1016.1 0.2
01/07:30am 7.5 6.8 7.1 97 0.2 CALM 0 0 0 0 1015.9 1015.9 0.2
01/07:00am 4.6 3.3 4.0 96 0.3 CALM 0 0 0 0 1015.7 1015.7 0.2
01/06:30am 3.5 1.9 2.6 94 0.4 CALM 0 0 0 0 1015.6 1015.6 0.2
01/06:00am 4.0 2.2 3.3 95 0.3 WNW 2 6 1 3 1015.2 1015.2 0.2
01/05:30am 4.1 2.7 3.4 95 0.3 CALM 0 0 0 0 1015.0 1015.0 0.2
01/05:00am 4.2 2.8 3.5 95 0.3 CALM 0 0 0 0 1014.9 1014.9 0.2
01/04:30am 4.7 3.4 4.0 95 0.3 CALM 0 0 0 0 1014.7 1014.7 0.2
01/04:00am 5.0 3.7 4.1 94 0.4 CALM 0 0 0 0 1014.7 1014.7 0.2
01/03:30am 4.9 3.6 4.0 94 0.4 CALM 0 4 0 2 1014.7 1014.7 0.2
01/03:00am 6.0 4.9 5.1 94 0.4 CALM 0 0 0 0 1014.6 1014.6 0.2
01/02:30am 5.6 4.4 4.6 93 0.4 CALM 0 0 0 0 1014.8 1014.8 0.2
01/02:00am 6.2 5.1 5.2 93 0.4 CALM 0 0 0 0 1015.2 1015.2 0.2
01/01:30am 6.3 5.2 5.3 93 0.4 CALM 0 0 0 0 1015.2 1015.2 0.2
01/01:00am 7.0 6.1 5.9 93 0.5 CALM 0 0 0 0 1015.4 1015.4 0.2
01/12:30am 7.4 6.5 6.0 91 0.6 CALM 0 0 0 0 1015.4 1015.4 0.2
01/12:00am 7.9 7.1 6.7 92 0.6 CALM 0 0 0 0 1015.6 1015.6 0.2
 
Date/Time
EST
Temp
°C
App
Temp
°C
Dew
Point
Rel
Hum
%
Delta-T
°C
Wind Press
QNH
hPa
Press
MSL
hPa
Rain
since 9 am
mm
Dir
 
Spd
km/h
Gust
km/h
Spd
kts
Gust
kts
31/11:30pm 8.3 7.6 6.9 91 0.6 CALM 0 0 0 0 1015.8 1015.8 0.2
31/11:00pm 8.5 7.8 7.0 90 0.7 CALM 0 0 0 0 1015.8 1015.8 0.2
31/10:30pm 9.1 8.1 7.4 89 0.8 NW 2 6 1 3 1015.9 1015.9 0.2
31/10:00pm 9.8 9.4 8.2 90 0.8 CALM 0 0 0 0 1015.9 1015.9 0.2
31/09:30pm 9.5 9.1 8.1 91 0.7 CALM 0 0 0 0 1016.0 1016.0 0.2
31/09:00pm 9.3 8.7 7.6 89 0.8 CALM 0 0 0 0 1015.8 1015.8 0.2
31/08:30pm 9.6 9.0 7.5 87 1.0 CALM 0 0 0 0 1015.6 1015.6 0.2
31/08:00pm 9.9 9.4 7.7 86 1.1 CALM 0 0 0 0 1015.7 1015.7 0.2
31/07:30pm 10.3 9.8 7.7 84 1.2 CALM 0 0 0 0 1015.4 1015.4 0.2
31/07:00pm 10.9 10.4 7.8 81 1.5 CALM 0 0 0 0 1015.2 1015.2 0.2
31/06:30pm 11.7 11.1 7.6 76 2.0 CALM 0 0 0 0 1014.9 1014.9 0.2
31/06:00pm 12.7 12.0 7.0 68 2.7 CALM 0 0 0 0 1014.7 1014.7 0.2
31/05:30pm 14.4 13.7 7.0 61 3.6 CALM 0 0 0 0 1014.6 1014.6 0.2
31/05:00pm 15.7 13.5 6.4 54 4.5 SSE 7 11 4 6 1014.5 1014.5 0.2
31/04:30pm 16.0 13.9 6.7 54 4.6 SE 7 11 4 6 1014.2 1014.2 0.2
31/04:00pm 16.6 14.9 6.1 50 5.1 SE 4 6 2 3 1014.1 1014.1 0.2
31/03:30pm 17.1 15.3 7.2 52 4.9 ESE 6 7 3 4 1014.0 1014.0 0.2
31/03:00pm 16.5 13.8 5.8 49 5.2 ESE 9 17 5 9 1014.1 1014.1 0.2
31/02:30pm 17.1 14.5 6.0 48 5.4 E 9 17 5 9 1014.1 1014.1 0.2
31/02:00pm 19.2 16.5 3.8 36 7.3 WSW 7 17 4 9 1014.1 1014.1 0.2
31/01:30pm 17.6 15.7 4.9 43 6.1 W 4 7 2 4 1014.6 1014.6 0.2
31/01:00pm 17.8 15.5 4.7 42 6.2 SW 6 9 3 5 1014.8 1014.8 0.2
31/12:30pm 18.4 16.0 4.2 39 6.7 WSW 6 13 3 7 1015.2 1015.2 0.2

Other Formats:

Comma delimited format used in spreadsheet applications
http://www.bom.gov.au/fwo/IDN60801/IDN60801.95767.axf

JavaScript Object Notation format (JSON) in row-major order
http://www.bom.gov.au/fwo/IDN60801/IDN60801.95767.json